Time;durP1;ratioP1;P1;durP2;ratioP2;P2;SDS_P1;SDS_P2;PMS_P1;PMS_P2;Temp;Humidity;BMP_temperature;BMP_pressure;BME280_temperature;BME280_humidity;BME280_pressure;Samples;Min_cycle;Max_cycle;Signal;HPM_P1;HPM_P2
2023/09/11 00:01:00;;;;;;;43.40;23.55;;;;;;;9.27;75.20;100344.28;4908547;29;20147;-77
2023/09/11 00:03:26;;;;;;;47.90;23.05;;;;;;;8.71;74.92;100266.13;4931510;29;20039;-77
2023/09/11 00:06:03;;;;;;;44.53;23.35;;;;;;;9.37;75.29;100367.72;4932146;29;20044;-77
2023/09/11 00:08:28;;;;;;;41.45;21.48;;;;;;;9.23;75.23;100339.94;4915969;29;20055;-78
2023/09/11 00:10:54;;;;;;;43.30;22.35;;;;;;;8.77;75.30;100260.09;4920115;29;20040;-77
2023/09/11 00:13:20;;;;;;;40.88;22.23;;;;;;;9.27;74.86;100346.91;4915766;29;20087;-77
2023/09/11 00:15:46;;;;;;;37.22;20.83;;;;;;;8.55;74.60;100248.69;4931903;29;20043;-77
2023/09/11 00:18:12;;;;;;;36.92;20.15;;;;;;;9.24;75.04;100348.63;4916057;29;20035;-77
2023/09/11 00:20:38;;;;;;;35.08;19.50;;;;;;;8.81;74.76;100280.03;4915276;29;20044;-75
2023/09/11 00:23:08;;;;;;;35.65;18.90;;;;;;;9.11;74.64;100334.69;4931124;29;20274;-76
2023/09/11 00:25:37;;;;;;;32.83;18.65;;;;;;;8.54;74.28;100240.06;4900645;29;20046;-78
2023/09/11 00:28:03;;;;;;;37.38;19.73;;;;;;;9.13;74.50;100343.38;4897095;29;20040;-77
2023/09/11 00:30:29;;;;;;;32.63;18.45;;;;;;;8.83;74.99;100295.59;4921225;29;20051;-78
2023/09/11 00:32:56;;;;;;;34.92;18.90;;;;;;;9.12;74.36;100347.66;4931983;29;20039;-78
2023/09/11 00:35:22;;;;;;;36.85;19.33;;;;;;;9.08;74.42;100343.31;4919057;29;20146;-77
2023/09/11 00:37:48;;;;;;;30.58;17.20;;;;;;;8.52;74.22;100235.72;4916581;29;20043;-77
2023/09/11 00:40:14;;;;;;;30.95;17.98;;;;;;;9.09;74.53;100341.59;4931885;29;20054;-78
2023/09/11 00:42:39;;;;;;;28.42;17.20;;;;;;;8.37;73.99;100226.94;4930780;29;20138;-78
2023/09/11 00:45:06;;;;;;;30.85;16.58;;;;;;;8.34;74.42;100216.53;4894560;29;20134;-78
2023/09/11 00:47:32;;;;;;;29.73;17.60;;;;;;;9.03;74.29;100339.84;4915248;29;20141;-76
2023/09/11 00:49:59;;;;;;;42.45;20.65;;;;;;;8.93;74.41;100328.53;4931538;29;20043;-78
2023/09/11 00:52:26;;;;;;;32.22;18.63;;;;;;;8.36;74.07;100247.69;4929883;29;20035;-77
2023/09/11 00:54:54;;;;;;;36.00;19.40;;;;;;;8.16;74.35;100201.75;4909916;29;21359;-76
2023/09/11 00:57:21;;;;;;;34.72;20.05;;;;;;;8.69;73.58;100301.56;4932243;29;20097;-76
2023/09/11 00:59:51;;;;;;;37.08;19.20;;;;;;;8.66;74.01;100300.66;4930045;29;20059;-76
2023/09/11 01:02:18;;;;;;;36.78;20.55;;;;;;;8.39;73.69;100256.34;4929556;29;20131;-77
2023/09/11 01:04:45;;;;;;;46.90;22.52;;;;;;;8.40;74.07;100275.34;4910938;29;20140;-77
2023/09/11 01:07:17;;;;;;;44.25;20.65;;;;;;;8.47;73.96;100278.91;4931211;29;20134;-77
2023/09/11 01:09:43;;;;;;;47.97;19.88;;;;;;;8.42;73.84;100266.75;4925204;29;20417;-77
2023/09/11 01:12:09;;;;;;;36.70;19.13;;;;;;;8.68;73.61;100307.63;4929619;29;20052;-79
2023/09/11 01:14:39;;;;;;;41.05;20.00;;;;;;;8.34;74.02;100255.44;4911957;29;20055;-78
2023/09/11 01:17:30;;;;;;;35.28;19.02;;;;;;;8.26;74.37;100247.59;4931076;29;20194;-77
2023/09/11 01:20:26;;;;;;;34.23;18.50;;;;;;;8.25;74.16;100256.25;4927865;29;20047;-78
2023/09/11 01:23:15;;;;;;;33.72;18.02;;;;;;;8.56;73.83;100284.16;4928241;29;20051;-77
2023/09/11 01:26:18;;;;;;;34.00;18.23;;;;;;;8.81;74.22;100318.06;4930269;29;20089;-77
2023/09/11 01:29:09;;;;;;;28.85;17.00;;;;;;;8.81;73.94;100323.25;4915087;29;20048;-78
2023/09/11 01:31:37;;;;;;;40.03;20.17;;;;;;;8.79;74.03;100330.16;4914311;29;20039;-78
2023/09/11 01:34:05;;;;;;;27.08;15.63;;;;;;;8.11;73.79;100217.25;4914065;29;20164;-79
2023/09/11 01:36:31;;;;;;;30.15;17.70;;;;;;;8.05;73.81;100212.03;4929449;28;20134;-77
2023/09/11 01:38:58;;;;;;;34.58;18.55;;;;;;;8.02;73.97;100217.19;4920696;29;20160;-78
2023/09/11 01:41:26;;;;;;;50.80;23.67;;;;;;;8.32;73.21;100280.50;4929490;29;20652;-77
2023/09/11 01:43:59;;;;;;;49.90;22.73;;;;;;;8.14;74.02;100258.75;4925283;29;20055;-78
2023/09/11 01:46:27;;;;;;;45.47;22.70;;;;;;;8.26;73.96;100280.47;4931265;29;20040;-77
2023/09/11 01:48:56;;;;;;;51.75;22.55;;;;;;;8.53;73.89;100334.31;4913378;29;20043;-78
2023/09/11 01:51:24;;;;;;;172.95;27.83;;;;;;;8.56;74.52;100325.66;4929123;29;20058;-77
2023/09/11 01:53:50;;;;;;;150.60;24.23;;;;;;;8.13;73.79;100262.19;4929584;29;20054;-78
2023/09/11 01:56:17;;;;;;;42.35;21.02;;;;;;;8.51;74.68;100320.44;4930461;29;20489;-78
2023/09/11 01:58:43;;;;;;;38.60;20.50;;;;;;;8.26;74.54;100280.47;4906094;29;20050;-79
2023/09/11 02:01:09;;;;;;;38.95;19.67;;;;;;;8.26;74.42;100280.47;4897536;29;20123;-78
2023/09/11 02:03:35;;;;;;;45.42;20.20;;;;;;;8.52;74.44;100329.97;4924457;29;20059;-78
2023/09/11 02:06:01;;;;;;;46.97;22.83;;;;;;;8.51;74.77;100325.63;4913580;29;20039;-79
2023/09/11 02:08:29;;;;;;;43.33;21.65;;;;;;;8.51;74.36;100319.56;4916340;29;20075;-80
2023/09/11 02:10:55;;;;;;;39.17;19.65;;;;;;;8.45;74.44;100304.81;4929679;29;20035;-81
2023/09/11 02:13:21;;;;;;;39.97;20.80;;;;;;;7.92;74.89;100224.03;4931184;29;20070;-78
2023/09/11 02:15:49;;;;;;;45.35;21.88;;;;;;;7.89;74.74;100208.44;4931892;29;20047;-79
2023/09/11 02:18:15;;;;;;;38.33;20.30;;;;;;;7.76;74.85;100173.78;4929870;29;20035;-78
2023/09/11 02:21:01;;;;;;;33.45;19.02;;;;;;;8.51;74.45;100283.25;4917089;29;20047;-78
2023/09/11 02:23:27;;;;;;;36.63;19.27;;;;;;;8.81;74.96;100312.88;4912404;29;20049;-76
2023/09/11 02:25:53;;;;;;;31.35;18.58;;;;;;;8.93;74.88;100327.66;4914429;29;20043;-78
2023/09/11 02:28:19;;;;;;;35.50;18.05;;;;;;;8.71;74.21;100268.72;4915265;29;20416;-81
2023/09/11 02:30:45;;;;;;;30.67;17.10;;;;;;;8.21;74.38;100181.03;4913613;29;20047;-79
2023/09/11 02:33:11;;;;;;;29.45;17.17;;;;;;;8.54;74.56;100218.44;4929330;29;20047;-80
2023/09/11 02:35:37;;;;;;;33.40;17.30;;;;;;;8.67;74.66;100228.03;4909830;29;20048;-78
2023/09/11 02:38:03;;;;;;;31.42;17.77;;;;;;;8.82;74.34;100250.63;4914018;29;20563;-77
2023/09/11 02:40:29;;;;;;;31.80;17.73;;;;;;;9.07;74.21;100275.81;4913199;29;20553;-79
2023/09/11 02:42:55;;;;;;;34.53;17.55;;;;;;;9.33;74.37;100310.56;4892018;29;20078;-78
2023/09/11 02:45:21;;;;;;;34.08;18.27;;;;;;;8.73;74.04;100211.63;4929465;29;20040;-77
2023/09/11 02:47:47;;;;;;;31.40;17.15;;;;;;;8.83;74.25;100220.34;4929248;29;20410;-80
2023/09/11 02:50:13;;;;;;;30.58;17.48;;;;;;;9.28;73.96;100290.63;4912892;29;20142;-78
2023/09/11 02:52:39;;;;;;;38.17;18.10;;;;;;;9.14;73.79;100272.41;4897001;29;20067;-78
2023/09/11 02:55:06;;;;;;;36.50;17.23;;;;;;;8.91;73.73;100235.94;4914548;29;20062;-78
2023/09/11 02:57:32;;;;;;;33.10;19.13;;;;;;;8.94;74.28;100234.22;4912678;29;20043;-78
2023/09/11 02:59:58;;;;;;;40.95;19.67;;;;;;;8.92;73.99;100225.59;4931067;29;20046;-76
2023/09/11 03:02:24;;;;;;;33.35;18.30;;;;;;;9.48;74.12;100301.97;4904454;29;20665;-78
2023/09/11 03:04:51;;;;;;;30.83;17.83;;;;;;;9.57;73.96;100303.75;4921422;29;20049;-77
2023/09/11 03:07:20;;;;;;;33.80;18.33;;;;;;;9.59;73.91;100302.03;4914642;29;20043;-79
2023/09/11 03:09:47;;;;;;;31.10;17.88;;;;;;;9.71;74.07;100305.50;4908423;29;20451;-78
2023/09/11 03:12:13;;;;;;;31.40;16.95;;;;;;;9.79;73.70;100299.44;4913283;29;20051;-78
2023/09/11 03:14:39;;;;;;;31.88;18.05;;;;;;;9.73;73.75;100282.97;4930085;29;20048;-79
2023/09/11 03:17:06;;;;;;;36.13;18.08;;;;;;;9.93;73.62;100298.63;4924635;29;20052;-79
2023/09/11 03:19:36;;;;;;;32.58;17.88;;;;;;;9.53;73.41;100230.97;4893999;29;20197;-78
2023/09/11 03:22:02;;;;;;;30.75;17.30;;;;;;;9.50;73.06;100213.66;4912998;29;20106;-78
2023/09/11 03:24:29;;;;;;;29.33;17.10;;;;;;;9.61;73.17;100224.06;4917255;29;20070;-77
2023/09/11 03:26:55;;;;;;;31.45;17.55;;;;;;;9.70;73.34;100211.09;4914134;29;20096;-75
2023/09/11 03:29:21;;;;;;;31.30;17.35;;;;;;;9.51;72.95;100173.81;4918490;29;20040;-77
2023/09/11 03:31:47;;;;;;;27.45;16.92;;;;;;;9.82;72.97;100207.59;4916455;29;20040;-77
2023/09/11 03:34:13;;;;;;;30.58;16.88;;;;;;;10.56;72.85;100308.22;4934552;29;20054;-77
2023/09/11 03:36:41;;;;;;;28.52;16.40;;;;;;;10.05;72.44;100205.03;4933670;29;20052;-77
2023/09/11 03:39:07;;;;;;;31.17;17.63;;;;;;;10.20;72.67;100226.69;4932729;29;20494;-77
2023/09/11 03:41:34;;;;;;;32.42;17.48;;;;;;;10.24;72.25;100226.72;4897470;29;20381;-80
2023/09/11 03:44:01;;;;;;;28.77;17.20;;;;;;;10.50;72.11;100254.44;4896529;29;20075;-78
2023/09/11 03:46:27;;;;;;;31.88;17.77;;;;;;;10.04;71.83;100205.03;4911956;29;20051;-77
2023/09/11 03:48:53;;;;;;;29.65;16.83;;;;;;;10.22;72.08;100218.03;4931980;29;20054;-78
2023/09/11 03:51:19;;;;;;;32.42;16.80;;;;;;;10.82;72.06;100310.78;4930303;29;20039;-78
2023/09/11 03:53:45;;;;;;;29.65;17.05;;;;;;;10.60;71.71;100264.84;4912691;29;20043;-77
2023/09/11 03:56:16;;;;;;;27.92;17.42;;;;;;;10.71;71.54;100265.69;4931407;29;20457;-77
2023/09/11 03:59:37;;;;;;;36.63;19.42;;;;;;;11.03;71.19;100297.75;4932373;29;20498;-79
2023/09/11 04:02:08;;;;;;;30.20;17.35;;;;;;;10.02;71.25;100131.38;4852188;29;20069;-76
2023/09/11 04:04:34;;;;;;;31.35;18.08;;;;;;;10.37;71.09;100172.91;4914508;29;20157;-78
2023/09/11 04:07:00;;;;;;;30.67;17.25;;;;;;;10.74;71.01;100218.81;4909780;29;20040;-78
2023/09/11 04:09:30;;;;;;;28.15;17.38;;;;;;;11.33;70.95;100301.97;4915247;29;20050;-78
2023/09/11 04:11:56;;;;;;;31.60;18.00;;;;;;;11.52;70.64;100301.88;4896942;29;20039;-78
2023/09/11 04:14:23;;;;;;;29.15;17.55;;;;;;;10.89;70.19;100191.88;4910489;29;20044;-77
2023/09/11 04:16:49;;;;;;;29.95;18.27;;;;;;;10.61;69.98;100118.25;4932603;29;20055;-77
2023/09/11 04:19:15;;;;;;;30.20;17.00;;;;;;;11.25;70.04;100215.16;4932755;29;20392;-78
2023/09/11 04:21:41;;;;;;;31.73;18.70;;;;;;;11.64;69.78;100273.13;4932696;29;20526;-77
2023/09/11 04:24:12;;;;;;;29.98;17.55;;;;;;;11.48;69.90;100222.00;4931289;29;20044;-78
2023/09/11 04:26:45;;;;;;;31.08;18.65;;;;;;;11.78;69.37;100248.75;4932440;29;20058;-77
2023/09/11 04:29:11;;;;;;;31.02;18.33;;;;;;;11.79;69.45;100229.63;4900860;29;20586;-78
2023/09/11 04:31:39;;;;;;;24.73;16.60;;;;;;;12.18;69.12;100270.19;4923036;29;20046;-77
2023/09/11 04:34:05;;;;;;;30.48;17.67;;;;;;;12.03;68.94;100234.66;4896555;29;20050;-77
2023/09/11 04:36:32;;;;;;;29.73;18.45;;;;;;;11.75;68.74;100164.47;4896856;29;20039;-78
2023/09/11 04:38:58;;;;;;;31.13;17.83;;;;;;;12.15;68.39;100201.53;4930052;29;20486;-78
2023/09/11 04:41:24;;;;;;;27.95;17.52;;;;;;;12.86;68.51;100296.56;4930504;29;20043;-78
2023/09/11 04:43:50;;;;;;;28.85;17.13;;;;;;;13.03;68.13;100260.66;4900170;29;20110;-77
2023/09/11 04:46:16;;;;;;;26.13;17.60;;;;;;;12.84;67.58;100186.91;4915237;29;20039;-78
2023/09/11 04:48:43;;;;;;;28.38;17.60;;;;;;;13.16;67.38;100218.72;4922901;29;20507;-77
2023/09/11 04:51:09;;;;;;;29.52;17.35;;;;;;;13.61;67.34;100259.97;4913519;29;20050;-76
2023/09/11 04:53:35;;;;;;;31.08;18.42;;;;;;;13.89;67.07;100297.06;4924837;29;20079;-76
2023/09/11 04:56:02;;;;;;;31.30;19.08;;;;;;;13.18;66.52;100154.25;4908802;29;20054;-76
2023/09/11 04:58:31;;;;;;;25.05;17.58;;;;;;;13.77;66.37;100237.97;4930717;29;20050;-74
2023/09/11 05:00:57;;;;;;;26.88;17.70;;;;;;;13.81;66.27;100213.47;4930258;29;20414;-75
2023/09/11 05:03:23;;;;;;;25.98;17.30;;;;;;;14.45;65.94;100297.03;4895662;29;20062;-75
2023/09/11 05:05:49;;;;;;;27.48;16.92;;;;;;;14.17;65.94;100207.66;4931075;29;20154;-77
2023/09/11 05:08:15;;;;;;;28.58;18.02;;;;;;;14.37;64.79;100206.44;4924878;29;20126;-77
2023/09/11 05:10:42;;;;;;;29.73;17.83;;;;;;;15.31;65.55;100207.25;4908167;29;20108;-77
2023/09/11 05:13:10;;;;;;;26.98;17.65;;;;;;;16.59;64.49;100219.91;4914805;29;20155;-77
2023/09/11 05:15:37;;;;;;;27.55;18.70;;;;;;;17.53;63.24;100232.16;4930332;29;20414;-77
2023/09/11 05:18:06;;;;;;;29.75;18.95;;;;;;;17.49;60.58;100209.47;4925666;29;20051;-79
2023/09/11 05:20:32;;;;;;;26.70;17.45;;;;;;;17.99;60.37;100188.56;4909198;29;20048;-77
2023/09/11 05:22:58;;;;;;;26.40;17.45;;;;;;;19.63;59.61;100212.53;4929843;29;20044;-77
2023/09/11 05:25:24;;;;;;;27.23;17.77;;;;;;;21.12;57.33;100260.03;4914373;29;20081;-77
2023/09/11 05:27:50;;;;;;;29.25;18.83;;;;;;;21.20;55.67;100209.41;4915410;29;20106;-77
2023/09/11 05:30:17;;;;;;;29.20;18.63;;;;;;;22.66;54.15;100261.47;4931595;29;20043;-78
2023/09/11 05:32:52;;;;;;;30.42;18.55;;;;;;;23.84;51.95;100222.38;4892795;29;20075;-78
2023/09/11 05:35:19;;;;;;;28.50;19.40;;;;;;;24.28;49.12;100242.88;4930212;29;20039;-78
2023/09/11 05:37:45;;;;;;;31.13;20.83;;;;;;;24.43;47.17;100189.69;4927998;29;20043;-77
2023/09/11 05:40:11;;;;;;;37.63;24.25;;;;;;;24.82;44.44;100182.94;4914658;29;20031;-77
2023/09/11 05:42:37;;;;;;;37.65;24.58;;;;;;;23.77;44.15;100143.03;4928607;29;20409;-76
2023/09/11 05:45:04;;;;;;;34.25;23.00;;;;;;;24.67;43.88;100237.91;4930075;29;20549;-76
2023/09/11 05:47:30;;;;;;;30.63;21.27;;;;;;;24.56;43.51;100185.38;4914445;29;20058;-76
2023/09/11 05:50:00;;;;;;;30.95;21.67;;;;;;;24.55;41.82;100162.38;4914111;29;20039;-77
2023/09/11 05:52:27;;;;;;;28.60;20.88;;;;;;;25.76;41.78;100210.66;4923756;29;20047;-76
2023/09/11 05:54:53;;;;;;;26.73;18.90;;;;;;;27.19;39.77;100233.00;4913497;29;20054;-77
2023/09/11 05:57:19;;;;;;;26.58;20.20;;;;;;;27.71;37.55;100158.00;4928913;29;20410;-77
2023/09/11 05:59:46;;;;;;;24.35;19.38;;;;;;;28.76;36.75;100160.66;4908487;29;20142;-77
2023/09/11 06:02:12;;;;;;;23.38;19.27;;;;;;;29.97;35.03;100215.19;4908125;29;20101;-78
2023/09/11 06:04:38;;;;;;;25.35;18.73;;;;;;;30.48;33.90;100197.44;4900852;29;20051;-75
2023/09/11 06:07:04;;;;;;;24.42;19.00;;;;;;;31.29;33.14;100177.00;4911451;29;20051;-75
2023/09/11 06:09:30;;;;;;;26.40;19.92;;;;;;;32.24;31.56;100185.31;4929056;29;20048;-75
2023/09/11 06:11:59;;;;;;;26.13;19.35;;;;;;;32.92;29.96;100139.44;4912317;29;20048;-76
2023/09/11 06:14:25;;;;;;;28.23;20.92;;;;;;;33.59;28.11;100107.63;4914545;29;20043;-76
2023/09/11 06:16:51;;;;;;;23.52;20.30;;;;;;;34.52;28.01;100168.34;4922410;29;20498;-77
2023/09/11 06:19:17;;;;;;;25.90;20.25;;;;;;;35.58;26.62;100203.16;4928606;29;20035;-75
2023/09/11 06:21:46;;;;;;;21.02;18.63;;;;;;;36.17;25.85;100199.44;4923323;29;20083;-76
2023/09/11 06:24:12;;;;;;;21.60;17.83;;;;;;;35.97;25.53;100164.63;4929985;29;20410;-74
2023/09/11 06:26:42;;;;;;;21.67;18.83;;;;;;;36.75;24.14;100194.75;4930601;29;20058;-75
2023/09/11 06:29:08;;;;;;;23.20;18.90;;;;;;;37.38;23.49;100197.47;4928481;29;20375;-70
2023/09/11 06:31:34;;;;;;;20.63;17.98;;;;;;;38.05;22.79;100200.56;4927800;29;20498;-72
2023/09/11 06:34:00;;;;;;;18.77;16.85;;;;;;;37.81;21.89;100166.28;4928688;29;20040;-76
2023/09/11 06:36:25;;;;;;;19.80;17.70;;;;;;;37.52;21.92;100163.31;4930618;29;20154;-76
2023/09/11 06:38:51;;;;;;;18.15;16.25;;;;;;;37.31;21.52;100171.25;4926645;29;20139;-72
2023/09/11 06:41:17;;;;;;;16.65;14.95;;;;;;;37.87;21.96;100191.84;4927627;29;20043;-70
2023/09/11 06:43:43;;;;;;;16.92;15.23;;;;;;;38.89;21.17;100173.31;4904400;29;20047;-75
2023/09/11 06:46:09;;;;;;;16.77;15.07;;;;;;;40.01;20.29;100190.16;4909478;29;20047;-74
2023/09/11 06:48:35;;;;;;;17.08;15.40;;;;;;;40.24;19.34;100186.38;4909982;29;20102;-76
2023/09/11 06:51:01;;;;;;;17.80;16.00;;;;;;;40.12;18.55;100208.66;4929117;29;20451;-74
2023/09/11 06:53:27;;;;;;;15.75;14.07;;;;;;;40.05;19.07;100214.06;4929317;29;20048;-75
2023/09/11 06:55:54;;;;;;;17.17;15.48;;;;;;;38.85;19.50;100214.47;4903542;29;20071;-76
2023/09/11 06:58:20;;;;;;;16.83;15.05;;;;;;;38.63;19.74;100208.13;4932318;29;20143;-75
2023/09/11 07:00:46;;;;;;;15.98;14.48;;;;;;;38.75;19.51;100211.19;4914434;29;20043;-74
2023/09/11 07:03:12;;;;;;;19.50;15.07;;;;;;;38.83;19.72;100192.06;4935124;29;20036;-78
2023/09/11 07:05:41;;;;;;;16.20;14.45;;;;;;;38.35;20.33;100202.47;4896663;29;20066;-71
2023/09/11 07:08:07;;;;;;;18.95;15.75;;;;;;;39.11;19.79;100210.41;4915370;29;20131;-69
2023/09/11 07:10:34;;;;;;;15.80;14.07;;;;;;;40.27;18.69;100199.59;4915680;29;20103;-73
2023/09/11 07:13:00;;;;;;;16.63;14.95;;;;;;;40.12;18.44;100195.03;4930296;29;20066;-71
2023/09/11 07:15:27;;;;;;;16.80;13.18;;;;;;;40.39;18.41;100189.81;4931477;29;20048;-71
2023/09/11 07:17:53;;;;;;;17.73;14.85;;;;;;;41.19;17.82;100199.41;4910896;29;20502;-70
2023/09/11 07:20:19;;;;;;;16.00;14.57;;;;;;;41.02;17.89;100177.09;4931112;29;20525;-71
2023/09/11 07:22:45;;;;;;;18.05;15.07;;;;;;;41.05;17.08;100196.63;4910672;29;20036;-74
2023/09/11 07:25:14;;;;;;;14.75;13.35;;;;;;;41.40;17.22;100204.69;4930392;29;20044;-74
2023/09/11 07:27:40;;;;;;;17.50;15.53;;;;;;;41.30;15.91;100192.50;4915172;29;20051;-77
2023/09/11 07:30:09;;;;;;;16.20;14.60;;;;;;;40.21;17.40;100124.94;4916887;29;20319;-76
2023/09/11 07:32:35;;;;;;;16.08;13.45;;;;;;;40.44;17.77;100176.44;4923654;29;20052;-75
2023/09/11 07:35:00;;;;;;;17.00;15.32;;;;;;;39.99;17.70;100192.25;4916141;29;20402;-78
2023/09/11 07:37:26;;;;;;;15.23;13.65;;;;;;;40.51;17.90;100182.72;4929471;29;20043;-76
2023/09/11 07:39:52;;;;;;;16.75;15.02;;;;;;;41.27;16.61;100177.38;4931613;29;20499;-78
2023/09/11 07:42:18;;;;;;;15.88;14.25;;;;;;;41.27;17.02;100190.22;4914428;29;20047;-73
2023/09/11 07:44:44;;;;;;;14.68;13.18;;;;;;;41.90;16.61;100178.91;4930328;29;20126;-77
2023/09/11 07:47:10;;;;;;;15.98;14.43;;;;;;;41.29;16.58;100177.16;4933193;29;20144;-76
2023/09/11 07:49:36;;;;;;;17.38;15.55;;;;;;;40.21;16.88;100183.00;4932521;29;20048;-75
2023/09/11 07:52:02;;;;;;;15.98;14.27;;;;;;;40.64;17.13;100137.50;4931260;29;20058;-75
2023/09/11 07:54:28;;;;;;;15.68;14.02;;;;;;;41.30;16.93;100187.91;4913067;29;20071;-75
2023/09/11 07:56:54;;;;;;;15.50;13.77;;;;;;;42.36;16.09;100171.72;4899728;29;20074;-77
2023/09/11 07:59:20;;;;;;;15.32;13.77;;;;;;;43.09;15.54;100142.41;4932376;29;20051;-77
2023/09/11 08:01:46;;;;;;;16.50;14.80;;;;;;;44.54;14.68;100168.94;4927767;29;20051;-81
2023/09/11 08:04:11;;;;;;;15.73;14.07;;;;;;;44.74;14.43;100170.59;4924314;29;20083;-75
2023/09/11 08:06:37;;;;;;;16.80;15.10;;;;;;;44.66;13.87;100167.13;4930272;29;20410;-77
2023/09/11 08:09:03;;;;;;;14.95;13.35;;;;;;;45.00;14.33;100183.16;4911304;29;20035;-76
2023/09/11 08:11:31;;;;;;;14.10;12.70;;;;;;;45.57;13.38;100174.44;4923218;29;20054;-77
2023/09/11 08:13:57;;;;;;;16.23;14.63;;;;;;;45.16;13.31;100154.19;4927913;29;20058;-77
2023/09/11 08:16:23;;;;;;;15.50;13.90;;;;;;;45.60;13.21;100133.84;4927117;29;20481;-74
2023/09/11 08:18:49;;;;;;;15.30;13.65;;;;;;;45.82;13.42;100178.09;4923003;29;20528;-69
2023/09/11 08:21:16;;;;;;;15.05;13.60;;;;;;;46.77;12.66;100173.28;4927529;29;20051;-76
2023/09/11 08:23:43;;;;;;;15.50;13.90;;;;;;;46.52;12.83;100172.78;4928200;29;20138;-76
2023/09/11 08:26:10;;;;;;;15.52;13.68;;;;;;;45.31;13.63;100174.91;4931387;29;20048;-75
2023/09/11 08:28:36;;;;;;;15.65;14.15;;;;;;;45.08;13.60;100171.00;4929693;29;20146;-73
2023/09/11 08:31:03;;;;;;;14.18;12.77;;;;;;;45.73;13.32;100170.19;4913199;29;20087;-73
2023/09/11 08:33:29;;;;;;;13.60;12.38;;;;;;;46.11;12.51;100148.00;4929008;29;20047;-75
2023/09/11 08:35:56;;;;;;;15.05;13.23;;;;;;;45.39;13.77;100174.56;4910823;29;20054;-72
2023/09/11 08:38:22;;;;;;;13.70;11.77;;;;;;;45.51;13.78;100155.34;4928349;29;20047;-74
2023/09/11 08:40:48;;;;;;;14.88;12.98;;;;;;;44.33;13.37;100153.78;4930483;29;20143;-74
2023/09/11 08:43:14;;;;;;;13.80;12.52;;;;;;;42.43;14.57;100149.84;4927215;29;20142;-74
2023/09/11 08:45:40;;;;;;;13.23;11.93;;;;;;;41.79;14.70;100161.28;4931479;29;20051;-74
2023/09/11 08:48:11;;;;;;;11.77;10.55;;;;;;;42.07;15.49;100146.56;4913901;29;20362;-72
2023/09/11 08:50:50;;;;;;;11.70;10.27;;;;;;;42.32;14.84;100131.34;4930830;29;20044;-72
2023/09/11 08:53:18;;;;;;;11.90;10.77;;;;;;;42.92;14.46;100139.34;4928543;29;20051;-74
2023/09/11 08:55:46;;;;;;;11.68;10.65;;;;;;;43.47;14.40;100138.75;4930528;29;20048;-72
2023/09/11 08:58:15;;;;;;;11.27;10.17;;;;;;;44.03;14.23;100124.34;4929790;29;20142;-73
2023/09/11 09:00:41;;;;;;;12.60;9.80;;;;;;;44.76;13.77;100143.75;4928865;29;20052;-74
2023/09/11 09:03:08;;;;;;;12.65;10.80;;;;;;;44.94;13.25;100154.72;4928414;29;20387;-75
2023/09/11 09:05:35;;;;;;;11.52;9.73;;;;;;;44.48;13.51;100115.00;4930842;29;21371;-74
2023/09/11 09:08:04;;;;;;;10.75;9.68;;;;;;;44.83;13.53;100150.00;4928707;29;20039;-74
2023/09/11 09:10:30;;;;;;;10.40;9.33;;;;;;;45.98;13.07;100130.66;4913692;29;20589;-73
2023/09/11 09:12:56;;;;;;;10.25;9.00;;;;;;;47.18;12.57;100148.47;4911717;29;20303;-75
2023/09/11 09:15:24;;;;;;;9.98;8.98;;;;;;;47.91;11.16;100133.91;4931119;29;20094;-73
2023/09/11 09:17:50;;;;;;;11.88;9.38;;;;;;;46.10;12.60;100138.09;4930698;29;20045;-75
2023/09/11 09:20:17;;;;;;;12.02;10.95;;;;;;;46.30;12.45;100126.66;4921622;29;20036;-74
2023/09/11 09:22:57;;;;;;;10.10;9.13;;;;;;;47.25;11.65;100133.72;4928572;29;20402;-73
2023/09/11 09:25:27;;;;;;;10.63;8.75;;;;;;;46.16;12.25;100132.44;4925775;29;20035;-72
2023/09/11 09:27:54;;;;;;;8.60;7.32;;;;;;;45.71;11.87;100131.13;4912259;29;20040;-77
2023/09/11 09:30:22;;;;;;;10.25;9.13;;;;;;;43.99;13.12;100131.34;4928829;29;20047;-78
2023/09/11 09:32:50;;;;;;;14.65;9.93;;;;;;;42.09;14.50;100129.94;4929286;29;20074;-79
2023/09/11 09:35:22;;;;;;;10.98;9.88;;;;;;;43.27;13.95;100121.66;4927092;29;20054;-71
2023/09/11 09:37:53;;;;;;;14.00;9.45;;;;;;;44.25;12.87;100116.53;4928424;29;20039;-75
2023/09/11 09:40:33;;;;;;;10.93;9.75;;;;;;;42.45;14.46;100099.38;4927457;29;20036;-75
2023/09/11 09:43:03;;;;;;;12.40;9.88;;;;;;;43.26;14.15;100115.34;4921134;29;20048;-75
2023/09/11 09:45:35;;;;;;;10.90;9.80;;;;;;;43.78;13.79;100117.88;4908913;29;20049;-74
2023/09/11 09:48:14;;;;;;;10.95;9.85;;;;;;;44.80;13.14;100103.81;4929092;29;20112;-75
2023/09/11 09:51:01;;;;;;;11.93;9.75;;;;;;;45.69;12.48;100113.25;4924045;29;20047;-77
2023/09/11 09:53:34;;;;;;;12.48;9.20;;;;;;;46.11;12.26;100124.09;4925068;29;20039;-76
2023/09/11 09:56:05;;;;;;;10.63;9.50;;;;;;;46.72;12.22;100103.59;4929221;29;20051;-76
2023/09/11 09:58:49;;;;;;;10.95;9.00;;;;;;;47.28;11.40;100114.78;4928620;29;20097;-74
2023/09/11 10:01:17;;;;;;;9.02;8.20;;;;;;;47.76;11.27;100118.00;4926842;29;20107;-75
2023/09/11 10:03:45;;;;;;;8.60;7.70;;;;;;;47.20;11.07;100091.28;4929022;29;20050;-78
2023/09/11 10:06:22;;;;;;;10.25;8.75;;;;;;;45.68;11.99;100082.19;4927294;29;20095;-73
2023/09/11 10:09:10;;;;;;;8.57;7.85;;;;;;;45.56;12.19;100117.03;4904098;29;20126;-72
2023/09/11 10:11:38;;;;;;;8.63;7.17;;;;;;;46.16;11.87;100118.69;4905936;29;20047;-76
2023/09/11 10:14:06;;;;;;;10.45;7.57;;;;;;;45.92;11.75;100112.38;4905195;29;20090;-72
2023/09/11 10:16:33;;;;;;;10.25;7.50;;;;;;;44.18;12.26;100099.34;4926019;29;20107;-74
2023/09/11 10:19:00;;;;;;;8.18;7.28;;;;;;;42.49;12.82;100107.97;4929187;29;20035;-78
2023/09/11 10:21:29;;;;;;;8.82;7.93;;;;;;;40.68;14.08;100111.56;4925881;29;20094;-76
2023/09/11 10:23:56;;;;;;;9.32;8.10;;;;;;;39.30;15.19;100085.69;4908141;29;20044;-75
2023/09/11 10:26:43;;;;;;;11.57;9.30;;;;;;;38.24;16.24;100103.28;4926131;29;20490;-76
2023/09/11 10:29:20;;;;;;;10.18;9.07;;;;;;;37.66;17.16;100093.84;4911990;29;20114;-76
2023/09/11 10:31:58;;;;;;;12.88;8.98;;;;;;;36.82;18.07;100100.00;4927162;29;20512;-76
2023/09/11 10:34:25;;;;;;;10.63;8.32;;;;;;;35.99;17.96;100094.91;4932147;29;20048;-75
2023/09/11 10:36:57;;;;;;;10.65;7.90;;;;;;;35.22;19.08;100100.66;4933072;29;20147;-75
2023/09/11 10:39:23;;;;;;;9.45;8.48;;;;;;;34.44;20.05;100108.00;4919350;29;20036;-74
2023/09/11 10:41:49;;;;;;;9.48;8.48;;;;;;;33.36;20.84;100099.13;4933445;29;20065;-73
2023/09/11 10:44:16;;;;;;;13.93;8.93;;;;;;;32.25;22.40;100110.81;4916210;29;20043;-74
2023/09/11 10:46:49;;;;;;;11.38;8.73;;;;;;;31.60;22.63;100115.03;4929532;29;20051;-79
2023/09/11 10:49:20;;;;;;;13.43;8.95;;;;;;;30.97;23.04;100091.22;4928988;29;20105;-74
2023/09/11 10:51:48;;;;;;;13.50;8.52;;;;;;;30.81;23.88;100116.75;4912294;29;20130;-75
2023/09/11 10:54:16;;;;;;;15.75;9.27;;;;;;;30.52;24.29;100112.13;4928446;29;20089;-72
2023/09/11 10:56:43;;;;;;;11.43;8.88;;;;;;;30.07;24.53;100085.66;4911058;29;20048;-73
2023/09/11 10:59:10;;;;;;;14.35;9.10;;;;;;;30.04;25.11;100117.13;4930038;29;20039;-70
2023/09/11 11:01:36;;;;;;;12.98;9.85;;;;;;;29.87;25.20;100101.63;4910922;29;20051;-71
2023/09/11 11:04:05;;;;;;;12.75;9.35;;;;;;;29.75;25.36;100109.72;4929863;29;20090;-72
2023/09/11 11:06:33;;;;;;;12.25;9.70;;;;;;;29.23;26.10;100098.00;4919403;29;20158;-72
2023/09/11 11:09:02;;;;;;;12.20;8.93;;;;;;;28.81;26.96;100114.78;4911561;29;20044;-73
2023/09/11 11:11:31;;;;;;;11.95;9.10;;;;;;;27.88;26.97;100125.50;4911764;29;20035;-72
2023/09/11 11:14:18;;;;;;;10.80;8.25;;;;;;;27.27;28.70;100128.28;4925801;29;20052;-77
2023/09/11 11:17:12;;;;;;;12.43;8.68;;;;;;;27.15;29.25;100117.50;4912564;29;20130;-73
2023/09/11 11:20:00;;;;;;;13.90;9.50;;;;;;;27.26;29.13;100123.91;4913006;29;20103;-76